sensor_id;sensor_type;location;lat;lon;timestamp;pressure;altitude;pressure_sealevel;temperature;humidity
67430;BME280;54298;52.076;5.264;2024-03-02T00:02:18;99621.0;;;9.53;67.47
67430;BME280;54298;52.076;5.264;2024-03-02T00:03:54;99623.0;;;9.71;67.16
67430;BME280;54298;52.076;5.264;2024-03-02T00:05:30;99625.0;;;9.76;67.28
67430;BME280;54298;52.076;5.264;2024-03-02T00:08:43;99635.0;;;9.78;67.23
67430;BME280;54298;52.076;5.264;2024-03-02T00:10:20;99636.0;;;9.68;67.02
67430;BME280;54298;52.076;5.264;2024-03-02T00:12:00;99652.0;;;9.73;67.45
67430;BME280;54298;52.076;5.264;2024-03-02T00:13:36;99659.0;;;9.78;67.0
67430;BME280;54298;52.076;5.264;2024-03-02T00:17:21;99664.0;;;9.8;66.83
67430;BME280;54298;52.076;5.264;2024-03-02T00:19:02;99686.0;;;9.77;67.2
67430;BME280;54298;52.076;5.264;2024-03-02T00:20:38;99680.0;;;9.61;67.91
67430;BME280;54298;52.076;5.264;2024-03-02T00:22:15;99693.0;;;9.65;67.28
67430;BME280;54298;52.076;5.264;2024-03-02T00:25:36;99732.0;;;9.71;67.19
67430;BME280;54298;52.076;5.264;2024-03-02T00:27:14;99750.0;;;9.59;68.72
67430;BME280;54298;52.076;5.264;2024-03-02T00:28:54;99742.0;;;9.4;70.66
67430;BME280;54298;52.076;5.264;2024-03-02T00:30:47;99747.0;;;9.47;70.88
67430;BME280;54298;52.076;5.264;2024-03-02T00:32:27;99739.0;;;9.55;70.88
67430;BME280;54298;52.076;5.264;2024-03-02T00:35:50;99738.0;;;9.72;70.73
67430;BME280;54298;52.076;5.264;2024-03-02T00:37:26;99731.0;;;9.51;71.84
67430;BME280;54298;52.076;5.264;2024-03-02T00:39:02;99739.0;;;9.66;71.67
67430;BME280;54298;52.076;5.264;2024-03-02T00:42:15;99733.0;;;9.56;72.12
67430;BME280;54298;52.076;5.264;2024-03-02T00:43:57;99736.0;;;9.67;72.53
67430;BME280;54298;52.076;5.264;2024-03-02T00:45:34;99738.0;;;9.61;72.47
67430;BME280;54298;52.076;5.264;2024-03-02T00:47:10;99741.0;;;9.48;73.11
67430;BME280;54298;52.076;5.264;2024-03-02T00:50:29;99744.0;;;9.43;73.52
67430;BME280;54298;52.076;5.264;2024-03-02T00:52:06;99745.0;;;9.34;73.78
67430;BME280;54298;52.076;5.264;2024-03-02T00:53:42;99747.0;;;9.47;73.95
67430;BME280;54298;52.076;5.264;2024-03-02T00:57:00;99744.0;;;9.44;74.25
67430;BME280;54298;52.076;5.264;2024-03-02T00:58:36;99738.0;;;9.39;74.83
67430;BME280;54298;52.076;5.264;2024-03-02T01:00:13;99749.0;;;9.23;76.0
67430;BME280;54298;52.076;5.264;2024-03-02T01:01:49;99748.0;;;9.23;76.34
67430;BME280;54298;52.076;5.264;2024-03-02T01:05:01;99761.0;;;9.06;77.69
67430;BME280;54298;52.076;5.264;2024-03-02T01:06:37;99748.0;;;9.19;77.45
67430;BME280;54298;52.076;5.264;2024-03-02T01:08:13;99744.0;;;8.83;78.97
67430;BME280;54298;52.076;5.264;2024-03-02T01:11:26;99740.0;;;9.02;78.83
67430;BME280;54298;52.076;5.264;2024-03-02T01:13:02;99736.0;;;8.91;79.33
67430;BME280;54298;52.076;5.264;2024-03-02T01:14:38;99755.0;;;8.9;79.05
67430;BME280;54298;52.076;5.264;2024-03-02T01:17:50;99758.0;;;8.9;79.27
67430;BME280;54298;52.076;5.264;2024-03-02T01:19:26;99757.0;;;8.72;80.31
67430;BME280;54298;52.076;5.264;2024-03-02T01:21:03;99753.0;;;8.56;81.06
67430;BME280;54298;52.076;5.264;2024-03-02T01:22:39;99755.0;;;8.89;80.08
67430;BME280;54298;52.076;5.264;2024-03-02T01:25:52;99764.0;;;8.59;81.05
67430;BME280;54298;52.076;5.264;2024-03-02T01:27:29;99761.0;;;8.53;81.55
67430;BME280;54298;52.076;5.264;2024-03-02T01:29:05;99757.0;;;8.66;81.03
67430;BME280;54298;52.076;5.264;2024-03-02T01:32:17;99753.0;;;8.96;79.94
67430;BME280;54298;52.076;5.264;2024-03-02T01:33:53;99760.0;;;8.96;79.61
67430;BME280;54298;52.076;5.264;2024-03-02T01:35:29;99763.0;;;8.6;80.83
67430;BME280;54298;52.076;5.264;2024-03-02T01:38:42;99776.0;;;8.49;81.37
67430;BME280;54298;52.076;5.264;2024-03-02T01:40:18;99766.0;;;8.57;81.33
67430;BME280;54298;52.076;5.264;2024-03-02T01:41:54;99769.0;;;8.51;81.41
67430;BME280;54298;52.076;5.264;2024-03-02T01:43:30;99773.0;;;8.48;81.87
67430;BME280;54298;52.076;5.264;2024-03-02T01:46:44;99776.0;;;8.69;80.8
67430;BME280;54298;52.076;5.264;2024-03-02T01:48:20;99787.0;;;8.64;80.67
67430;BME280;54298;52.076;5.264;2024-03-02T01:49:56;99787.0;;;8.6;80.95
67430;BME280;54298;52.076;5.264;2024-03-02T01:53:08;99783.0;;;8.64;80.77
67430;BME280;54298;52.076;5.264;2024-03-02T01:54:44;99783.0;;;8.39;81.64
67430;BME280;54298;52.076;5.264;2024-03-02T01:56:21;99795.0;;;8.51;81.36
67430;BME280;54298;52.076;5.264;2024-03-02T01:59:33;99791.0;;;8.33;81.99
67430;BME280;54298;52.076;5.264;2024-03-02T02:01:09;99780.0;;;8.63;81.08
67430;BME280;54298;52.076;5.264;2024-03-02T02:02:45;99771.0;;;8.53;81.61
67430;BME280;54298;52.076;5.264;2024-03-02T02:05:57;99782.0;;;8.59;81.45
67430;BME280;54298;52.076;5.264;2024-03-02T02:07:35;99778.0;;;8.56;81.63
67430;BME280;54298;52.076;5.264;2024-03-02T02:09:11;99786.0;;;8.5;82.03
67430;BME280;54298;52.076;5.264;2024-03-02T02:10:47;99786.0;;;8.27;82.67
67430;BME280;54298;52.076;5.264;2024-03-02T02:14:00;99793.0;;;8.22;83.04
67430;BME280;54298;52.076;5.264;2024-03-02T02:15:36;99789.0;;;8.17;83.35
67430;BME280;54298;52.076;5.264;2024-03-02T02:17:12;99794.0;;;8.13;83.79
67430;BME280;54298;52.076;5.264;2024-03-02T02:20:25;99785.0;;;8.16;83.61
67430;BME280;54298;52.076;5.264;2024-03-02T02:22:01;99780.0;;;8.43;83.04
67430;BME280;54298;52.076;5.264;2024-03-02T02:23:37;99778.0;;;8.47;82.94
67430;BME280;54298;52.076;5.264;2024-03-02T02:26:50;99778.0;;;8.44;83.0
67430;BME280;54298;52.076;5.264;2024-03-02T02:28:26;99775.0;;;8.5;83.03
67430;BME280;54298;52.076;5.264;2024-03-02T02:30:03;99767.0;;;8.39;83.2
67430;BME280;54298;52.076;5.264;2024-03-02T02:31:40;99771.0;;;8.41;83.32
67430;BME280;54298;52.076;5.264;2024-03-02T02:34:52;99780.0;;;8.39;83.47
67430;BME280;54298;52.076;5.264;2024-03-02T02:36:28;99780.0;;;8.27;84.45
67430;BME280;54298;52.076;5.264;2024-03-02T02:38:05;99777.0;;;8.11;84.91
67430;BME280;54298;52.076;5.264;2024-03-02T02:41:17;99778.0;;;8.2;85.37
67430;BME280;54298;52.076;5.264;2024-03-02T02:42:53;99771.0;;;8.26;85.15
67430;BME280;54298;52.076;5.264;2024-03-02T02:44:29;99773.0;;;8.13;85.38
67430;BME280;54298;52.076;5.264;2024-03-02T02:47:42;99783.0;;;8.26;84.95
67430;BME280;54298;52.076;5.264;2024-03-02T02:49:18;99783.0;;;8.06;85.27
67430;BME280;54298;52.076;5.264;2024-03-02T02:50:55;99775.0;;;7.89;85.79
67430;BME280;54298;52.076;5.264;2024-03-02T02:52:31;99777.0;;;8.14;84.72
67430;BME280;54298;52.076;5.264;2024-03-02T02:55:44;99780.0;;;7.94;85.44
67430;BME280;54298;52.076;5.264;2024-03-02T02:57:20;99780.0;;;8.1;84.77
67430;BME280;54298;52.076;5.264;2024-03-02T02:58:56;99781.0;;;7.97;84.83
67430;BME280;54298;52.076;5.264;2024-03-02T03:02:08;99776.0;;;8.13;84.13
67430;BME280;54298;52.076;5.264;2024-03-02T03:03:45;99780.0;;;8.13;83.55
67430;BME280;54298;52.076;5.264;2024-03-02T03:05:22;99776.0;;;8.09;83.16
67430;BME280;54298;52.076;5.264;2024-03-02T03:08:34;99783.0;;;8.11;83.18
67430;BME280;54298;52.076;5.264;2024-03-02T03:10:10;99775.0;;;8.06;83.22
67430;BME280;54298;52.076;5.264;2024-03-02T03:11:46;99772.0;;;7.88;83.47
67430;BME280;54298;52.076;5.264;2024-03-02T03:14:58;99773.0;;;7.99;83.66
67430;BME280;54298;52.076;5.264;2024-03-02T03:16:35;99790.0;;;8.13;83.07
67430;BME280;54298;52.076;5.264;2024-03-02T03:18:12;99778.0;;;7.78;83.78
67430;BME280;54298;52.076;5.264;2024-03-02T03:19:48;99777.0;;;7.89;83.16
67430;BME280;54298;52.076;5.264;2024-03-02T03:23:00;99777.0;;;7.83;82.46
67430;BME280;54298;52.076;5.264;2024-03-02T03:24:36;99777.0;;;8.1;81.72
67430;BME280;54298;52.076;5.264;2024-03-02T03:26:12;99776.0;;;7.94;81.33
67430;BME280;54298;52.076;5.264;2024-03-02T03:29:24;99783.0;;;7.94;80.72
67430;BME280;54298;52.076;5.264;2024-03-02T03:31:01;99784.0;;;8.07;80.44
67430;BME280;54298;52.076;5.264;2024-03-02T03:32:37;99790.0;;;8.13;79.87
67430;BME280;54298;52.076;5.264;2024-03-02T03:35:49;99787.0;;;8.01;79.88
67430;BME280;54298;52.076;5.264;2024-03-02T03:37:25;99791.0;;;8.09;79.84
67430;BME280;54298;52.076;5.264;2024-03-02T03:39:04;99794.0;;;8.19;79.22
67430;BME280;54298;52.076;5.264;2024-03-02T03:40:40;99792.0;;;7.95;79.8
67430;BME280;54298;52.076;5.264;2024-03-02T03:43:53;99789.0;;;8.17;79.23
67430;BME280;54298;52.076;5.264;2024-03-02T03:45:30;99796.0;;;8.27;78.52
67430;BME280;54298;52.076;5.264;2024-03-02T03:47:06;99805.0;;;8.26;78.8
67430;BME280;54298;52.076;5.264;2024-03-02T03:50:18;99807.0;;;8.26;78.92
67430;BME280;54298;52.076;5.264;2024-03-02T03:51:54;99806.0;;;8.02;79.81
67430;BME280;54298;52.076;5.264;2024-03-02T03:53:30;99809.0;;;8.3;78.99
67430;BME280;54298;52.076;5.264;2024-03-02T03:56:43;99805.0;;;8.31;78.87
67430;BME280;54298;52.076;5.264;2024-03-02T03:58:20;99799.0;;;8.25;79.02
67430;BME280;54298;52.076;5.264;2024-03-02T03:59:56;99802.0;;;8.33;78.89
67430;BME280;54298;52.076;5.264;2024-03-02T04:01:32;99805.0;;;8.31;78.69
67430;BME280;54298;52.076;5.264;2024-03-02T04:04:44;99805.0;;;8.41;78.66
67430;BME280;54298;52.076;5.264;2024-03-02T04:06:20;99805.0;;;8.22;79.41
67430;BME280;54298;52.076;5.264;2024-03-02T04:07:56;99817.0;;;8.3;79.13
67430;BME280;54298;52.076;5.264;2024-03-02T04:11:09;99810.0;;;8.36;79.0
67430;BME280;54298;52.076;5.264;2024-03-02T04:12:45;99816.0;;;8.31;79.0
67430;BME280;54298;52.076;5.264;2024-03-02T04:14:21;99814.0;;;8.39;79.05
67430;BME280;54298;52.076;5.264;2024-03-02T04:17:33;99820.0;;;8.27;79.05
67430;BME280;54298;52.076;5.264;2024-03-02T04:19:09;99818.0;;;8.51;78.61
67430;BME280;54298;52.076;5.264;2024-03-02T04:20:45;99817.0;;;8.38;79.3
67430;BME280;54298;52.076;5.264;2024-03-02T04:23:57;99820.0;;;8.27;79.45
67430;BME280;54298;52.076;5.264;2024-03-02T04:25:34;99819.0;;;8.39;79.25
67430;BME280;54298;52.076;5.264;2024-03-02T04:27:10;99818.0;;;8.39;79.58
67430;BME280;54298;52.076;5.264;2024-03-02T04:28:46;99820.0;;;8.44;79.31
67430;BME280;54298;52.076;5.264;2024-03-02T04:33:34;99817.0;;;8.45;79.16
67430;BME280;54298;52.076;5.264;2024-03-02T04:35:10;99820.0;;;8.39;79.44
67430;BME280;54298;52.076;5.264;2024-03-02T04:38:22;99821.0;;;8.5;79.14
67430;BME280;54298;52.076;5.264;2024-03-02T04:39:59;99819.0;;;8.28;80.06
67430;BME280;54298;52.076;5.264;2024-03-02T04:41:35;99819.0;;;8.34;79.92
67430;BME280;54298;52.076;5.264;2024-03-02T04:44:47;99824.0;;;8.48;79.08
67430;BME280;54298;52.076;5.264;2024-03-02T04:46:23;99826.0;;;8.49;78.7
67430;BME280;54298;52.076;5.264;2024-03-02T04:47:59;99826.0;;;8.3;79.19
67430;BME280;54298;52.076;5.264;2024-03-02T04:51:11;99826.0;;;8.13;79.69
67430;BME280;54298;52.076;5.264;2024-03-02T04:52:47;99823.0;;;8.26;79.19
67430;BME280;54298;52.076;5.264;2024-03-02T04:54:23;99830.0;;;8.38;78.48
67430;BME280;54298;52.076;5.264;2024-03-02T04:56:00;99831.0;;;8.05;79.66
67430;BME280;54298;52.076;5.264;2024-03-02T04:59:15;99837.0;;;8.14;78.99
67430;BME280;54298;52.076;5.264;2024-03-02T05:00:51;99844.0;;;8.08;78.91
67430;BME280;54298;52.076;5.264;2024-03-02T05:02:27;99841.0;;;8.19;78.52
67430;BME280;54298;52.076;5.264;2024-03-02T05:05:39;99849.0;;;8.11;78.92
67430;BME280;54298;52.076;5.264;2024-03-02T05:07:15;99849.0;;;7.85;79.5
67430;BME280;54298;52.076;5.264;2024-03-02T05:08:51;99849.0;;;8.06;79.19
67430;BME280;54298;52.076;5.264;2024-03-02T05:12:04;99852.0;;;7.87;80.06
67430;BME280;54298;52.076;5.264;2024-03-02T05:13:41;99858.0;;;7.91;79.45
67430;BME280;54298;52.076;5.264;2024-03-02T05:15:17;99850.0;;;7.71;80.55
67430;BME280;54298;52.076;5.264;2024-03-02T05:16:53;99850.0;;;7.62;80.41
67430;BME280;54298;52.076;5.264;2024-03-02T05:20:07;99850.0;;;7.79;79.7
67430;BME280;54298;52.076;5.264;2024-03-02T05:21:43;99861.0;;;7.76;79.86
67430;BME280;54298;52.076;5.264;2024-03-02T05:23:19;99860.0;;;7.92;79.44
67430;BME280;54298;52.076;5.264;2024-03-02T05:26:33;99857.0;;;7.82;79.19
67430;BME280;54298;52.076;5.264;2024-03-02T05:28:09;99862.0;;;7.72;79.42
67430;BME280;54298;52.076;5.264;2024-03-02T05:29:45;99862.0;;;7.8;79.52
67430;BME280;54298;52.076;5.264;2024-03-02T05:32:57;99860.0;;;7.83;79.02
67430;BME280;54298;52.076;5.264;2024-03-02T05:34:33;99859.0;;;7.68;79.27
67430;BME280;54298;52.076;5.264;2024-03-02T05:36:09;99863.0;;;7.76;78.3
67430;BME280;54298;52.076;5.264;2024-03-02T05:37:45;99858.0;;;7.71;78.75
67430;BME280;54298;52.076;5.264;2024-03-02T05:40:58;99863.0;;;7.88;78.19
67430;BME280;54298;52.076;5.264;2024-03-02T05:42:34;99862.0;;;7.92;77.55
67430;BME280;54298;52.076;5.264;2024-03-02T05:44:10;99864.0;;;7.98;77.06
67430;BME280;54298;52.076;5.264;2024-03-02T05:47:22;99864.0;;;7.71;77.94
67430;BME280;54298;52.076;5.264;2024-03-02T05:48:59;99870.0;;;7.68;77.52
67430;BME280;54298;52.076;5.264;2024-03-02T05:50:35;99873.0;;;7.76;77.36
67430;BME280;54298;52.076;5.264;2024-03-02T05:53:47;99880.0;;;7.95;76.77
67430;BME280;54298;52.076;5.264;2024-03-02T05:55:24;99878.0;;;7.94;76.66
67430;BME280;54298;52.076;5.264;2024-03-02T05:57:00;99880.0;;;7.95;76.37
67430;BME280;54298;52.076;5.264;2024-03-02T06:00:12;99884.0;;;8.08;76.05
67430;BME280;54298;52.076;5.264;2024-03-02T06:01:49;99881.0;;;8.03;76.31
67430;BME280;54298;52.076;5.264;2024-03-02T06:03:25;99882.0;;;8.06;75.83
67430;BME280;54298;52.076;5.264;2024-03-02T06:05:01;99883.0;;;8.02;75.72
67430;BME280;54298;52.076;5.264;2024-03-02T06:08:13;99885.0;;;8.13;75.58
67430;BME280;54298;52.076;5.264;2024-03-02T06:09:49;99890.0;;;8.25;75.16
67430;BME280;54298;52.076;5.264;2024-03-02T06:11:25;99885.0;;;8.05;75.77
67430;BME280;54298;52.076;5.264;2024-03-02T06:14:38;99889.0;;;8.06;76.19
67430;BME280;54298;52.076;5.264;2024-03-02T06:16:14;99893.0;;;8.17;75.74
67430;BME280;54298;52.076;5.264;2024-03-02T06:17:50;99895.0;;;8.06;75.98
67430;BME280;54298;52.076;5.264;2024-03-02T06:21:03;99893.0;;;8.11;75.83
67430;BME280;54298;52.076;5.264;2024-03-02T06:22:39;99897.0;;;7.99;75.99
67430;BME280;54298;52.076;5.264;2024-03-02T06:24:15;99897.0;;;8.03;75.95
67430;BME280;54298;52.076;5.264;2024-03-02T06:27:28;99905.0;;;8.1;75.66
67430;BME280;54298;52.076;5.264;2024-03-02T06:29:04;99907.0;;;8.19;75.49
67430;BME280;54298;52.076;5.264;2024-03-02T06:30:40;99914.0;;;8.19;75.06
67430;BME280;54298;52.076;5.264;2024-03-02T06:32:16;99913.0;;;8.23;75.11
67430;BME280;54298;52.076;5.264;2024-03-02T06:35:28;99916.0;;;8.3;74.94
67430;BME280;54298;52.076;5.264;2024-03-02T06:37:04;99916.0;;;8.27;75.0
67430;BME280;54298;52.076;5.264;2024-03-02T06:38:40;99916.0;;;8.32;74.81
67430;BME280;54298;52.076;5.264;2024-03-02T06:41:53;99918.0;;;8.14;74.95
67430;BME280;54298;52.076;5.264;2024-03-02T06:43:29;99918.0;;;8.1;75.2
67430;BME280;54298;52.076;5.264;2024-03-02T06:45:05;99913.0;;;8.0;75.14
67430;BME280;54298;52.076;5.264;2024-03-02T06:48:18;99919.0;;;7.9;75.97
67430;BME280;54298;52.076;5.264;2024-03-02T06:49:55;99916.0;;;7.99;75.44
67430;BME280;54298;52.076;5.264;2024-03-02T06:51:33;99920.0;;;8.05;75.24
67430;BME280;54298;52.076;5.264;2024-03-02T06:53:09;99918.0;;;7.88;75.41
67430;BME280;54298;52.076;5.264;2024-03-02T06:56:21;99914.0;;;8.14;74.73
67430;BME280;54298;52.076;5.264;2024-03-02T06:57:58;99915.0;;;8.23;74.12
67430;BME280;54298;52.076;5.264;2024-03-02T06:59:34;99914.0;;;8.14;74.67
67430;BME280;54298;52.076;5.264;2024-03-02T07:02:46;99919.0;;;8.13;74.27
67430;BME280;54298;52.076;5.264;2024-03-02T07:04:22;99925.0;;;8.23;74.06
67430;BME280;54298;52.076;5.264;2024-03-02T07:05:58;99920.0;;;8.2;73.62
67430;BME280;54298;52.076;5.264;2024-03-02T07:09:10;99921.0;;;8.23;73.55
67430;BME280;54298;52.076;5.264;2024-03-02T07:10:47;99912.0;;;8.39;73.11
67430;BME280;54298;52.076;5.264;2024-03-02T07:12:23;99917.0;;;8.31;73.41
67430;BME280;54298;52.076;5.264;2024-03-02T07:13:59;99922.0;;;8.22;73.37
67430;BME280;54298;52.076;5.264;2024-03-02T07:17:14;99922.0;;;8.34;73.19
67430;BME280;54298;52.076;5.264;2024-03-02T07:18:50;99925.0;;;8.27;73.36
67430;BME280;54298;52.076;5.264;2024-03-02T07:20:26;99930.0;;;8.27;73.33
67430;BME280;54298;52.076;5.264;2024-03-02T07:23:42;99930.0;;;8.28;73.06
67430;BME280;54298;52.076;5.264;2024-03-02T07:25:18;99935.0;;;8.39;72.69
67430;BME280;54298;52.076;5.264;2024-03-02T07:26:54;99934.0;;;8.27;72.97
67430;BME280;54298;52.076;5.264;2024-03-02T07:30:07;99937.0;;;8.23;73.13
67430;BME280;54298;52.076;5.264;2024-03-02T07:31:44;99938.0;;;8.24;72.39
67430;BME280;54298;52.076;5.264;2024-03-02T07:33:20;99939.0;;;8.14;72.95
67430;BME280;54298;52.076;5.264;2024-03-02T07:34:56;99943.0;;;8.2;72.83
67430;BME280;54298;52.076;5.264;2024-03-02T07:38:08;99947.0;;;8.11;72.8
67430;BME280;54298;52.076;5.264;2024-03-02T07:39:44;99952.0;;;8.34;72.25
67430;BME280;54298;52.076;5.264;2024-03-02T07:41:20;99951.0;;;8.32;72.37
67430;BME280;54298;52.076;5.264;2024-03-02T07:46:09;99962.0;;;8.24;72.55
67430;BME280;54298;52.076;5.264;2024-03-02T07:47:45;99964.0;;;8.39;72.31
67430;BME280;54298;52.076;5.264;2024-03-02T07:51:01;99965.0;;;8.44;72.34
67430;BME280;54298;52.076;5.264;2024-03-02T07:52:37;99964.0;;;8.1;73.62
67430;BME280;54298;52.076;5.264;2024-03-02T07:54:13;99958.0;;;8.39;72.77
67430;BME280;54298;52.076;5.264;2024-03-02T07:55:49;99962.0;;;8.38;72.88
67430;BME280;54298;52.076;5.264;2024-03-02T07:59:02;99956.0;;;8.49;72.92
67430;BME280;54298;52.076;5.264;2024-03-02T08:00:39;99965.0;;;8.28;73.69
67430;BME280;54298;52.076;5.264;2024-03-02T08:02:15;99963.0;;;8.23;74.24
67430;BME280;54298;52.076;5.264;2024-03-02T08:05:27;99972.0;;;8.1;74.41
67430;BME280;54298;52.076;5.264;2024-03-02T08:07:03;99969.0;;;8.13;74.48
67430;BME280;54298;52.076;5.264;2024-03-02T08:08:40;99969.0;;;7.99;74.42
67430;BME280;54298;52.076;5.264;2024-03-02T08:11:52;99973.0;;;8.0;74.66
67430;BME280;54298;52.076;5.264;2024-03-02T08:13:28;99974.0;;;8.13;74.59
67430;BME280;54298;52.076;5.264;2024-03-02T08:15:05;99974.0;;;8.14;74.36
67430;BME280;54298;52.076;5.264;2024-03-02T08:18:18;99972.0;;;8.15;74.49
67430;BME280;54298;52.076;5.264;2024-03-02T08:19:54;99977.0;;;8.08;74.66
67430;BME280;54298;52.076;5.264;2024-03-02T08:21:33;99980.0;;;8.23;74.08
67430;BME280;54298;52.076;5.264;2024-03-02T08:23:09;99965.0;;;8.28;73.8
67430;BME280;54298;52.076;5.264;2024-03-02T08:26:21;99968.0;;;8.05;74.48
67430;BME280;54298;52.076;5.264;2024-03-02T08:27:58;99974.0;;;8.16;74.44
67430;BME280;54298;52.076;5.264;2024-03-02T08:29:33;99970.0;;;8.33;73.97
67430;BME280;54298;52.076;5.264;2024-03-02T08:32:49;99969.0;;;8.31;73.78
67430;BME280;54298;52.076;5.264;2024-03-02T08:34:25;99967.0;;;8.32;73.7
67430;BME280;54298;52.076;5.264;2024-03-02T08:36:01;99966.0;;;8.39;73.81
67430;BME280;54298;52.076;5.264;2024-03-02T08:39:17;99961.0;;;8.39;73.62
67430;BME280;54298;52.076;5.264;2024-03-02T08:40:53;99959.0;;;8.4;73.64
67430;BME280;54298;52.076;5.264;2024-03-02T08:42:29;99959.0;;;8.44;73.72
67430;BME280;54298;52.076;5.264;2024-03-02T08:44:05;99955.0;;;8.52;73.63
67430;BME280;54298;52.076;5.264;2024-03-02T08:47:18;99960.0;;;8.73;72.72
67430;BME280;54298;52.076;5.264;2024-03-02T08:48:55;99952.0;;;8.56;73.39
67430;BME280;54298;52.076;5.264;2024-03-02T08:50:31;99949.0;;;8.67;72.91
67430;BME280;54298;52.076;5.264;2024-03-02T08:53:43;99955.0;;;8.83;72.41
67430;BME280;54298;52.076;5.264;2024-03-02T08:55:19;99955.0;;;8.73;72.33
67430;BME280;54298;52.076;5.264;2024-03-02T08:56:55;99959.0;;;8.6;72.56
67430;BME280;54298;52.076;5.264;2024-03-02T09:00:08;99964.0;;;8.81;72.44
67430;BME280;54298;52.076;5.264;2024-03-02T09:01:44;99958.0;;;8.73;72.34
67430;BME280;54298;52.076;5.264;2024-03-02T09:03:20;99964.0;;;8.86;71.74
67430;BME280;54298;52.076;5.264;2024-03-02T09:04:57;99966.0;;;8.9;71.58
67430;BME280;54298;52.076;5.264;2024-03-02T09:08:09;99972.0;;;9.06;71.16
67430;BME280;54298;52.076;5.264;2024-03-02T09:09:45;99975.0;;;9.06;70.89
67430;BME280;54298;52.076;5.264;2024-03-02T09:11:21;99968.0;;;9.02;71.05
67430;BME280;54298;52.076;5.264;2024-03-02T09:16:12;99974.0;;;9.03;70.94
67430;BME280;54298;52.076;5.264;2024-03-02T09:17:48;99978.0;;;9.19;69.94
67430;BME280;54298;52.076;5.264;2024-03-02T09:21:00;99983.0;;;9.3;69.83
67430;BME280;54298;52.076;5.264;2024-03-02T09:22:36;99972.0;;;9.33;68.86
67430;BME280;54298;52.076;5.264;2024-03-02T09:24:12;99976.0;;;9.3;68.95
67430;BME280;54298;52.076;5.264;2024-03-02T09:25:48;99980.0;;;9.44;68.49
67430;BME280;54298;52.076;5.264;2024-03-02T09:29:00;99975.0;;;9.42;68.23
67430;BME280;54298;52.076;5.264;2024-03-02T09:30:36;99981.0;;;9.41;68.28
67430;BME280;54298;52.076;5.264;2024-03-02T09:32:13;99980.0;;;9.44;67.8
67430;BME280;54298;52.076;5.264;2024-03-02T09:35:26;99983.0;;;9.59;67.08
67430;BME280;54298;52.076;5.264;2024-03-02T09:37:02;99989.0;;;9.6;66.89
67430;BME280;54298;52.076;5.264;2024-03-02T09:38:38;99993.0;;;9.47;66.19
67430;BME280;54298;52.076;5.264;2024-03-02T09:41:50;99986.0;;;9.58;65.86
67430;BME280;54298;52.076;5.264;2024-03-02T09:43:26;99988.0;;;9.51;65.62
67430;BME280;54298;52.076;5.264;2024-03-02T09:45:03;99982.0;;;9.48;65.16
67430;BME280;54298;52.076;5.264;2024-03-02T09:48:15;99980.0;;;9.66;65.48
67430;BME280;54298;52.076;5.264;2024-03-02T09:49:51;99981.0;;;9.73;64.78
67430;BME280;54298;52.076;5.264;2024-03-02T09:51:28;99986.0;;;9.82;64.83
67430;BME280;54298;52.076;5.264;2024-03-02T09:53:04;99985.0;;;9.83;63.85
67430;BME280;54298;52.076;5.264;2024-03-02T09:56:17;99982.0;;;9.88;63.8
67430;BME280;54298;52.076;5.264;2024-03-02T09:57:53;99985.0;;;9.88;63.32
67430;BME280;54298;52.076;5.264;2024-03-02T09:59:29;99982.0;;;9.93;62.24
67430;BME280;54298;52.076;5.264;2024-03-02T10:02:42;99984.0;;;9.98;62.53
67430;BME280;54298;52.076;5.264;2024-03-02T10:04:18;99981.0;;;10.01;62.82
67430;BME280;54298;52.076;5.264;2024-03-02T10:05:54;99980.0;;;10.17;63.15
67430;BME280;54298;52.076;5.264;2024-03-02T10:10:42;99980.0;;;10.22;61.24
67430;BME280;54298;52.076;5.264;2024-03-02T10:12:18;99981.0;;;10.41;61.35
67430;BME280;54298;52.076;5.264;2024-03-02T10:14:08;99980.0;;;10.37;60.37
67430;BME280;54298;52.076;5.264;2024-03-02T10:17:20;99980.0;;;10.43;61.62
67430;BME280;54298;52.076;5.264;2024-03-02T10:18:56;99993.0;;;10.45;61.09
67430;BME280;54298;52.076;5.264;2024-03-02T10:20:32;99996.0;;;10.43;60.1
67430;BME280;54298;52.076;5.264;2024-03-02T10:23:46;99986.0;;;10.39;58.13
67430;BME280;54298;52.076;5.264;2024-03-02T10:25:30;99993.0;;;10.49;58.12
67430;BME280;54298;52.076;5.264;2024-03-02T10:27:07;99991.0;;;10.45;58.21
67430;BME280;54298;52.076;5.264;2024-03-02T10:28:46;99977.0;;;10.43;58.34
67430;BME280;54298;52.076;5.264;2024-03-02T10:32:02;99983.0;;;10.55;59.04
67430;BME280;54298;52.076;5.264;2024-03-02T10:33:39;99980.0;;;10.55;58.52
67430;BME280;54298;52.076;5.264;2024-03-02T10:35:16;99975.0;;;10.68;58.58
67430;BME280;54298;52.076;5.264;2024-03-02T10:38:31;99981.0;;;10.64;57.16
67430;BME280;54298;52.076;5.264;2024-03-02T10:40:08;99977.0;;;10.69;57.3
67430;BME280;54298;52.076;5.264;2024-03-02T10:41:49;99973.0;;;10.77;57.08
67430;BME280;54298;52.076;5.264;2024-03-02T10:43:28;99967.0;;;10.74;57.51
67430;BME280;54298;52.076;5.264;2024-03-02T10:46:45;99967.0;;;10.8;57.45
67430;BME280;54298;52.076;5.264;2024-03-02T10:48:25;99955.0;;;10.89;57.44
67430;BME280;54298;52.076;5.264;2024-03-02T10:50:04;99955.0;;;10.85;58.47
67430;BME280;54298;52.076;5.264;2024-03-02T10:51:41;99951.0;;;11.06;56.82
67430;BME280;54298;52.076;5.264;2024-03-02T10:54:54;99957.0;;;11.12;56.54
67430;BME280;54298;52.076;5.264;2024-03-02T10:56:31;99949.0;;;11.2;56.39
67430;BME280;54298;52.076;5.264;2024-03-02T10:58:12;99939.0;;;11.1;55.55
67430;BME280;54298;52.076;5.264;2024-03-02T11:01:32;99946.0;;;11.11;54.35
67430;BME280;54298;52.076;5.264;2024-03-02T11:03:11;99945.0;;;11.05;55.29
67430;BME280;54298;52.076;5.264;2024-03-02T11:04:49;99940.0;;;11.24;55.19
67430;BME280;54298;52.076;5.264;2024-03-02T11:06:28;99932.0;;;11.53;54.91
67430;BME280;54298;52.076;5.264;2024-03-02T11:09:49;99936.0;;;11.49;54.97
67430;BME280;54298;52.076;5.264;2024-03-02T11:11:32;99938.0;;;11.57;54.12
67430;BME280;54298;52.076;5.264;2024-03-02T11:13:12;99952.0;;;11.7;53.91
67430;BME280;54298;52.076;5.264;2024-03-02T11:14:50;99955.0;;;11.62;53.91
67430;BME280;54298;52.076;5.264;2024-03-02T11:18:09;99948.0;;;11.49;53.48
67430;BME280;54298;52.076;5.264;2024-03-02T11:19:47;99944.0;;;11.45;53.28
67430;BME280;54298;52.076;5.264;2024-03-02T11:21:24;99950.0;;;11.41;52.83
67430;BME280;54298;52.076;5.264;2024-03-02T11:23:05;99949.0;;;11.37;53.34
67430;BME280;54298;52.076;5.264;2024-03-02T11:26:25;99953.0;;;11.43;53.32
67430;BME280;54298;52.076;5.264;2024-03-02T11:28:03;99955.0;;;11.36;52.85
67430;BME280;54298;52.076;5.264;2024-03-02T11:29:43;99956.0;;;11.5;53.54
67430;BME280;54298;52.076;5.264;2024-03-02T11:31:22;99946.0;;;11.6;53.04